Time;durP1;ratioP1;P1;durP2;ratioP2;P2;SDS_P1;SDS_P2;PMS_P1;PMS_P2;Temp;Humidity;BMP_temperature;BMP_pressure;BME280_temperature;BME280_humidity;BME280_pressure;Samples;Min_cycle;Max_cycle;Signal;HPM_P1;HPM_P2
2023/11/17 06:00:20;;;;;;;5.23;3.50;;;;;;;;;;6092347;23;20523;-74
2023/11/17 06:02:47;;;;;;;6.77;4.60;;;;;;;;;;4976188;28;20423;-74
2023/11/17 06:05:16;;;;;;;10.70;4.00;;;;;;;;;;4975858;28;20743;-75
2023/11/17 06:07:42;;;;;;;5.13;3.30;;;;;;;;;;4975193;28;20554;-75
2023/11/17 06:10:08;;;;;;;6.47;3.60;;;;;;;;;;4975237;28;20416;-75
2023/11/17 06:12:34;;;;;;;4.80;3.40;;;;;;;;;;4975928;28;20494;-75
2023/11/17 06:15:01;;;;;;;15.83;3.60;;;;;;;;;;4976039;28;20407;-74
2023/11/17 06:17:27;;;;;;;4.23;3.00;;;;;;;;;;4977897;28;20411;-74
2023/11/17 06:19:54;;;;;;;11.00;4.10;;;;;;;;;;4976041;28;20408;-74
2023/11/17 06:22:21;;;;;;;5.70;3.70;;;;;;;;;;4974600;28;20431;-73
2023/11/17 06:24:47;;;;;;;4.70;4.03;;;;;;;;;;4971164;28;20423;-73
2023/11/17 06:27:13;;;;;;;10.80;4.17;;;;;;;;;;4975668;28;20459;-75
2023/11/17 06:29:39;;;;;;;6.03;4.13;;;;;;;;;;4974510;28;20435;-75
2023/11/17 06:32:06;;;;;;;6.50;3.70;;;;;;;;;;4975518;28;20580;-74
2023/11/17 06:34:32;;;;;;;5.40;2.80;;;;;;;;;;4975465;28;20416;-73
2023/11/17 06:36:57;;;;;;;8.47;3.97;;;;;;;;;;4970812;28;20947;-73
2023/11/17 06:39:24;;;;;;;5.80;3.97;;;;;;;;;;4964385;28;20758;-73
2023/11/17 06:41:51;;;;;;;4.70;3.63;;;;;;;;;;4975506;28;20432;-73
2023/11/17 06:44:21;;;;;;;5.33;3.20;;;;;;;;;;4975537;28;20467;-73
2023/11/17 06:46:47;;;;;;;6.67;3.70;;;;;;;;;;4975550;28;20801;-74
2023/11/17 06:49:14;;;;;;;7.40;3.90;;;;;;;;;;4975360;28;20420;-73
2023/11/17 06:51:41;;;;;;;5.40;3.50;;;;;;;;;;4975456;28;20431;-75
2023/11/17 06:54:11;;;;;;;12.23;3.43;;;;;;;;;;4972757;28;20918;-73
2023/11/17 06:56:40;;;;;;;9.30;3.20;;;;;;;;;;4973333;28;20480;-73
2023/11/17 06:59:06;;;;;;;8.83;3.43;;;;;;;;;;4974401;28;20415;-73
2023/11/17 07:01:34;;;;;;;5.17;3.80;;;;;;;;;;4962131;28;20463;-73
2023/11/17 07:04:02;;;;;;;5.90;3.53;;;;;;;;;;4954714;29;20425;-73
2023/11/17 07:06:28;;;;;;;4.90;3.13;;;;;;;;;;4956738;29;20500;-74
2023/11/17 07:08:54;;;;;;;8.50;3.90;;;;;;;;;;4965536;28;20866;-74
2023/11/17 07:11:20;;;;;;;11.70;4.40;;;;;;;;;;4973903;28;20858;-74
2023/11/17 07:13:46;;;;;;;8.47;4.53;;;;;;;;;;4975290;28;20499;-74
2023/11/17 07:16:15;;;;;;;6.33;3.90;;;;;;;;;;4975512;28;20436;-75
2023/11/17 07:18:41;;;;;;;7.73;3.77;;;;;;;;;;4970914;28;20765;-74
2023/11/17 07:21:08;;;;;;;7.10;4.83;;;;;;;;;;4962737;28;21106;-74
2023/11/17 07:23:35;;;;;;;11.80;4.43;;;;;;;;;;4965859;28;20431;-73
2023/11/17 07:26:02;;;;;;;8.07;4.20;;;;;;;;;;4955841;29;20935;-75
2023/11/17 11:09:06;;;;;;;4.30;2.70;;;;;;;;;;4935219;29;20483;-75
2023/11/17 11:11:32;;;;;;;8.63;3.80;;;;;;;;;;4943230;29;20440;-75
2023/11/17 11:14:02;;;;;;;5.10;2.60;;;;;;;;;;4943430;29;20497;-75
2023/11/17 11:16:32;;;;;;;3.47;2.50;;;;;;;;;;4941669;29;20516;-75
2023/11/17 11:18:58;;;;;;;3.53;2.53;;;;;;;;;;4942626;29;20417;-74
2023/11/17 11:21:27;;;;;;;4.30;2.70;;;;;;;;;;4945524;29;20422;-75
2023/11/17 11:24:00;;;;;;;3.93;2.70;;;;;;;;;;4944162;29;20422;-74
2023/11/17 11:26:30;;;;;;;4.17;2.77;;;;;;;;;;4948952;29;20495;-77
2023/11/17 11:28:56;;;;;;;2.63;2.40;;;;;;;;;;4978124;28;20457;-75
2023/11/17 11:31:22;;;;;;;5.97;2.77;;;;;;;;;;4977027;28;20427;-74
2023/11/17 11:33:49;;;;;;;3.03;2.53;;;;;;;;;;4963950;29;20420;-75
2023/11/17 11:36:15;;;;;;;4.73;2.67;;;;;;;;;;4981877;28;20444;-75
2023/11/17 11:38:49;;;;;;;4.10;2.60;;;;;;;;;;4963104;29;20423;-78
2023/11/17 11:41:22;;;;;;;3.90;2.30;;;;;;;;;;4960447;28;20500;-72
2023/11/17 11:43:49;;;;;;;4.77;2.63;;;;;;;;;;4961213;28;20443;-71
2023/11/17 11:46:16;;;;;;;3.33;2.27;;;;;;;;;;4960756;28;20493;-76
2023/11/17 11:48:50;;;;;;;6.50;2.80;;;;;;;;;;4949946;29;20515;-70
2023/11/17 11:51:16;;;;;;;3.77;2.60;;;;;;;;;;4945166;29;20829;-73
2023/11/17 11:53:53;;;;;;;3.87;2.93;;;;;;;;;;4937861;29;20421;-77
2023/11/17 11:56:21;;;;;;;4.20;2.90;;;;;;;;;;4939118;29;20524;-76
2023/11/17 11:58:48;;;;;;;3.97;2.30;;;;;;;;;;4941093;29;20418;-76
2023/11/17 12:01:16;;;;;;;4.93;2.47;;;;;;;;;;4940929;29;20516;-76
2023/11/17 12:03:44;;;;;;;2.87;2.13;;;;;;;;;;4951767;29;20465;-76
2023/11/17 12:06:10;;;;;;;3.80;2.63;;;;;;;;;;4964275;28;20447;-77
2023/11/17 12:08:36;;;;;;;3.93;2.20;;;;;;;;;;4963776;29;20472;-78
2023/11/17 12:11:05;;;;;;;2.60;2.20;;;;;;;;;;4940272;29;20441;-77
2023/11/17 12:13:41;;;;;;;1.80;1.70;;;;;;;;;;4928820;29;20901;-76
2023/11/17 12:16:33;;;;;;;2.80;2.37;;;;;;;;;;4936762;29;20442;-74
2023/11/17 12:19:00;;;;;;;2.27;2.07;;;;;;;;;;4931588;29;20462;-75
2023/11/17 12:21:27;;;;;;;3.40;2.13;;;;;;;;;;4934359;29;20456;-76
2023/11/17 12:23:57;;;;;;;1.53;1.43;;;;;;;;;;4941385;29;20476;-77
2023/11/17 12:26:27;;;;;;;2.70;2.10;;;;;;;;;;4938916;29;20445;-76
2023/11/17 12:28:54;;;;;;;2.20;1.50;;;;;;;;;;4938286;29;20453;-77
2023/11/17 12:31:20;;;;;;;2.00;1.67;;;;;;;;;;4935850;29;20424;-76
2023/11/17 12:33:51;;;;;;;2.40;1.53;;;;;;;;;;4937872;29;20429;-76
2023/11/17 12:36:21;;;;;;;2.60;1.40;;;;;;;;;;4924465;29;20534;-76
2023/11/17 12:38:57;;;;;;;2.40;1.40;;;;;;;;;;4942489;29;20426;-76
2023/11/17 12:41:26;;;;;;;2.80;1.50;;;;;;;;;;4933815;29;20426;-77
2023/11/17 12:43:55;;;;;;;2.33;2.00;;;;;;;;;;4934219;29;20754;-76
2023/11/17 12:46:23;;;;;;;3.70;1.60;;;;;;;;;;4946122;29;20469;-76
2023/11/17 12:48:49;;;;;;;1.70;1.63;;;;;;;;;;4973198;28;20602;-77
2023/11/17 12:51:25;;;;;;;1.73;1.60;;;;;;;;;;4966615;29;20472;-78
2023/11/17 12:53:51;;;;;;;2.40;1.60;;;;;;;;;;4957723;28;20426;-79
2023/11/17 12:56:17;;;;;;;1.60;1.23;;;;;;;;;;4955387;29;20465;-79
2023/11/17 12:58:43;;;;;;;2.97;1.70;;;;;;;;;;4932443;29;20425;-77
2023/11/17 13:01:11;;;;;;;4.63;1.97;;;;;;;;;;4939306;29;20505;-76
2023/11/17 13:03:38;;;;;;;1.37;1.27;;;;;;;;;;4941124;29;20432;-76
2023/11/17 13:06:05;;;;;;;1.33;1.23;;;;;;;;;;4941339;29;20493;-77
2023/11/17 13:08:32;;;;;;;1.30;1.10;;;;;;;;;;4955316;28;20476;-77
2023/11/17 13:11:00;;;;;;;1.60;1.50;;;;;;;;;;4947338;29;20436;-76
2023/11/17 13:13:27;;;;;;;2.50;1.40;;;;;;;;;;4964797;28;20419;-78
2023/11/17 13:15:53;;;;;;;3.70;1.30;;;;;;;;;;4961456;28;20435;-76
2023/11/17 13:18:19;;;;;;;2.00;1.20;;;;;;;;;;4943661;29;20429;-78
2023/11/17 13:20:46;;;;;;;1.27;1.13;;;;;;;;;;4948344;29;20424;-77
2023/11/17 13:23:12;;;;;;;2.50;1.57;;;;;;;;;;4944154;29;20512;-77
2023/11/17 13:25:56;;;;;;;1.33;1.20;;;;;;;;;;4945039;29;20425;-76
2023/11/17 13:28:23;;;;;;;1.30;1.20;;;;;;;;;;4951935;29;20647;-76
2023/11/17 13:30:49;;;;;;;1.33;1.00;;;;;;;;;;4968210;28;20429;-77
2023/11/17 13:33:15;;;;;;;1.40;0.97;;;;;;;;;;4960659;29;20440;-77
2023/11/17 13:35:45;;;;;;;3.17;1.30;;;;;;;;;;4966023;29;20415;-77
2023/11/17 13:38:11;;;;;;;1.20;1.17;;;;;;;;;;4959709;29;20412;-78
2023/11/17 13:40:37;;;;;;;1.47;1.17;;;;;;;;;;4960977;28;20397;-77
2023/11/17 13:43:09;;;;;;;1.27;1.17;;;;;;;;;;4959267;29;20428;-76
2023/11/17 13:45:37;;;;;;;1.43;1.00;;;;;;;;;;4958875;28;20436;-76
2023/11/17 13:48:04;;;;;;;1.27;1.20;;;;;;;;;;4957578;28;20978;-77
2023/11/17 13:50:34;;;;;;;1.13;1.03;;;;;;;;;;4964737;28;20408;-77
2023/11/17 13:53:00;;;;;;;1.30;1.20;;;;;;;;;;4960339;28;20429;-77
2023/11/17 13:55:29;;;;;;;3.43;2.20;;;;;;;;;;4966468;28;20415;-77
2023/11/17 13:57:56;;;;;;;4.80;1.60;;;;;;;;;;4979355;28;20433;-77
2023/11/17 14:00:24;;;;;;;1.57;1.20;;;;;;;;;;4963762;28;20932;-76
2023/11/17 14:02:50;;;;;;;2.13;1.60;;;;;;;;;;4967069;28;20452;-77
2023/11/17 14:05:16;;;;;;;2.60;1.40;;;;;;;;;;4985308;28;20435;-78
2023/11/17 14:07:42;;;;;;;2.50;1.40;;;;;;;;;;4967639;28;20460;-76
2023/11/17 14:10:09;;;;;;;1.50;1.40;;;;;;;;;;4962544;29;20512;-78
2023/11/17 14:12:35;;;;;;;1.40;1.33;;;;;;;;;;4966786;29;20409;-78
2023/11/17 14:15:12;;;;;;;3.23;2.10;;;;;;;;;;4968738;28;20401;-78
2023/11/17 14:17:38;;;;;;;8.93;5.90;;;;;;;;;;4970554;28;20452;-77
2023/11/17 14:20:07;;;;;;;4.80;2.70;;;;;;;;;;4968735;28;20419;-77
2023/11/17 14:22:35;;;;;;;2.10;1.93;;;;;;;;;;4968283;29;20412;-76
2023/11/17 14:25:01;;;;;;;3.73;2.10;;;;;;;;;;4964299;28;20413;-77
2023/11/17 14:27:27;;;;;;;3.23;2.03;;;;;;;;;;4962291;28;20467;-76
2023/11/17 14:29:54;;;;;;;2.93;2.17;;;;;;;;;;4962134;29;20405;-79
2023/11/17 14:32:21;;;;;;;5.23;2.30;;;;;;;;;;4976206;28;20432;-77
2023/11/17 14:34:49;;;;;;;3.83;2.50;;;;;;;;;;4978613;29;20428;-76
2023/11/17 14:37:15;;;;;;;4.50;2.60;;;;;;;;;;4972302;28;20440;-78
2023/11/17 14:39:41;;;;;;;4.63;2.93;;;;;;;;;;4966545;29;20421;-78
2023/11/17 14:42:08;;;;;;;4.37;2.40;;;;;;;;;;4963010;29;20487;-77
2023/11/17 14:44:34;;;;;;;2.13;1.50;;;;;;;;;;4980178;28;20496;-78
2023/11/17 14:47:00;;;;;;;3.57;1.90;;;;;;;;;;4978574;28;20483;-78
2023/11/17 14:49:30;;;;;;;2.97;1.63;;;;;;;;;;4963282;29;20511;-77
2023/11/17 14:51:59;;;;;;;7.23;2.07;;;;;;;;;;4963865;23;20496;-70
2023/11/17 14:54:28;;;;;;;1.87;1.73;;;;;;;;;;4936939;29;20983;-70
2023/11/17 14:56:54;;;;;;;2.63;2.30;;;;;;;;;;4936512;29;20410;-70
2023/11/17 14:59:20;;;;;;;2.30;1.80;;;;;;;;;;4936641;29;20401;-70
2023/11/17 15:01:47;;;;;;;5.40;2.60;;;;;;;;;;4936821;29;20426;-70
2023/11/17 15:04:18;;;;;;;4.20;2.10;;;;;;;;;;4936745;29;20485;-70
2023/11/17 15:06:45;;;;;;;2.93;2.40;;;;;;;;;;4936754;29;20404;-72
2023/11/17 15:09:11;;;;;;;3.53;2.00;;;;;;;;;;4936588;29;20465;-71
2023/11/17 15:11:37;;;;;;;4.83;3.27;;;;;;;;;;4936342;29;20440;-70
2023/11/17 15:14:05;;;;;;;4.47;2.70;;;;;;;;;;4936529;29;20977;-69
2023/11/17 15:16:34;;;;;;;3.10;2.50;;;;;;;;;;4936436;29;20411;-70
2023/11/17 15:19:00;;;;;;;2.70;2.30;;;;;;;;;;4936689;29;20421;-69
2023/11/17 15:21:33;;;;;;;3.57;2.20;;;;;;;;;;4935999;29;21013;-70
2023/11/17 15:23:59;;;;;;;7.53;3.00;;;;;;;;;;4936278;29;20429;-70
2023/11/17 15:26:27;;;;;;;6.60;3.70;;;;;;;;;;4936072;29;20785;-70
2023/11/17 15:28:53;;;;;;;3.07;2.90;;;;;;;;;;4941109;29;20472;-72
2023/11/17 15:31:23;;;;;;;7.93;3.10;;;;;;;;;;4947466;29;20440;-70
2023/11/17 15:33:52;;;;;;;4.77;3.30;;;;;;;;;;4954847;29;20840;-71
2023/11/17 15:36:18;;;;;;;5.30;3.70;;;;;;;;;;4954735;28;20415;-71
2023/11/17 15:38:46;;;;;;;4.77;3.13;;;;;;;;;;4953635;28;20408;-70
2023/11/17 15:41:20;;;;;;;10.63;3.90;;;;;;;;;;4954950;28;20448;-70
2023/11/17 15:43:47;;;;;;;5.30;3.30;;;;;;;;;;4955238;28;20412;-69
2023/11/17 15:46:21;;;;;;;5.63;3.73;;;;;;;;;;4954584;28;20425;-69
2023/11/17 15:48:50;;;;;;;6.30;3.40;;;;;;;;;;4954904;28;20873;-69
2023/11/17 15:51:16;;;;;;;6.37;4.10;;;;;;;;;;4954628;28;20948;-71
2023/11/17 15:53:42;;;;;;;7.80;4.57;;;;;;;;;;4954870;29;20423;-70
2023/11/17 15:56:08;;;;;;;7.97;4.53;;;;;;;;;;4954274;28;20417;-70
2023/11/17 15:58:34;;;;;;;9.40;4.17;;;;;;;;;;4946677;29;20508;-69
2023/11/17 16:01:08;;;;;;;7.93;4.33;;;;;;;;;;4932538;29;20890;-70
2023/11/17 16:03:34;;;;;;;8.43;4.83;;;;;;;;;;4925105;29;20414;-71
2023/11/17 16:06:00;;;;;;;7.97;4.00;;;;;;;;;;4923747;29;20433;-71
2023/11/17 16:08:27;;;;;;;9.67;5.00;;;;;;;;;;4916415;29;20469;-71
2023/11/17 16:10:56;;;;;;;10.50;4.40;;;;;;;;;;4916230;29;20437;-70
2023/11/17 16:13:22;;;;;;;6.83;4.20;;;;;;;;;;4916277;29;20419;-70
2023/11/17 16:15:49;;;;;;;6.80;5.03;;;;;;;;;;4915760;29;20772;-71
2023/11/17 16:18:15;;;;;;;9.20;4.57;;;;;;;;;;4916219;29;20422;-70
2023/11/17 16:20:42;;;;;;;12.57;4.27;;;;;;;;;;4917052;29;20976;-70
2023/11/17 16:23:14;;;;;;;9.50;4.60;;;;;;;;;;4916338;29;20426;-70
2023/11/17 16:25:41;;;;;;;12.23;5.83;;;;;;;;;;4915631;29;20826;-70
2023/11/17 16:28:10;;;;;;;10.10;4.90;;;;;;;;;;4923259;29;20466;-72
2023/11/17 16:30:38;;;;;;;7.60;4.40;;;;;;;;;;4926919;29;20800;-72
2023/11/17 16:33:06;;;;;;;6.13;4.73;;;;;;;;;;4934486;29;20910;-74
2023/11/17 16:35:33;;;;;;;7.03;4.13;;;;;;;;;;4934891;29;20410;-74
2023/11/17 16:37:59;;;;;;;7.57;4.50;;;;;;;;;;4927573;29;20422;-76
2023/11/17 16:40:29;;;;;;;14.20;6.10;;;;;;;;;;4919367;29;20469;-73
2023/11/17 16:42:59;;;;;;;7.03;5.03;;;;;;;;;;4931340;29;20425;-73
2023/11/17 16:45:26;;;;;;;12.17;4.90;;;;;;;;;;4934463;29;20405;-72
2023/11/17 16:47:56;;;;;;;7.00;4.47;;;;;;;;;;4942324;29;20831;-74
2023/11/17 16:50:23;;;;;;;10.50;5.20;;;;;;;;;;4925518;29;20464;-71
2023/11/17 16:52:49;;;;;;;9.03;5.47;;;;;;;;;;4933461;29;20418;-72
2023/11/17 16:55:16;;;;;;;8.47;5.47;;;;;;;;;;4934242;29;20518;-72
2023/11/17 16:57:44;;;;;;;13.90;5.93;;;;;;;;;;4934060;29;20425;-72
2023/11/17 17:00:15;;;;;;;10.80;5.30;;;;;;;;;;4933861;29;20505;-74
2023/11/17 17:02:43;;;;;;;8.00;5.37;;;;;;;;;;4933815;29;20476;-74
2023/11/17 17:05:09;;;;;;;12.07;6.20;;;;;;;;;;4934488;29;20476;-73
2023/11/17 17:07:35;;;;;;;10.67;6.60;;;;;;;;;;4942297;29;20475;-74
2023/11/17 17:10:01;;;;;;;11.53;6.30;;;;;;;;;;4934662;29;20413;-73
2023/11/17 17:12:27;;;;;;;12.37;6.40;;;;;;;;;;4934673;29;20414;-72
2023/11/17 17:14:54;;;;;;;8.50;5.50;;;;;;;;;;4941347;29;20414;-71
2023/11/17 17:17:20;;;;;;;16.37;5.90;;;;;;;;;;4932823;29;20509;-72
2023/11/17 17:19:47;;;;;;;11.63;5.73;;;;;;;;;;4933251;29;20448;-74
2023/11/17 17:22:13;;;;;;;12.40;6.13;;;;;;;;;;4933753;29;20563;-72
2023/11/17 17:24:39;;;;;;;9.47;6.37;;;;;;;;;;4933783;29;20489;-74
2023/11/17 17:27:08;;;;;;;12.10;6.33;;;;;;;;;;4933464;29;20430;-72
2023/11/17 17:29:34;;;;;;;14.73;7.93;;;;;;;;;;4934245;29;20425;-72
2023/11/17 17:32:00;;;;;;;10.30;5.53;;;;;;;;;;4933762;29;20533;-73
2023/11/17 17:34:26;;;;;;;13.30;5.97;;;;;;;;;;4932914;29;20425;-72
2023/11/17 17:36:53;;;;;;;12.13;6.17;;;;;;;;;;4933805;29;20426;-72
2023/11/17 17:39:19;;;;;;;8.00;4.90;;;;;;;;;;4933943;29;20432;-75
2023/11/17 17:41:49;;;;;;;12.70;5.90;;;;;;;;;;4940252;28;20446;-73
2023/11/17 17:44:16;;;;;;;14.00;5.10;;;;;;;;;;4937919;29;20425;-75
2023/11/17 17:46:42;;;;;;;8.73;5.10;;;;;;;;;;4937706;29;20457;-72
2023/11/17 17:49:13;;;;;;;9.70;5.90;;;;;;;;;;4937656;29;21007;-72
2023/11/17 17:51:39;;;;;;;10.80;6.03;;;;;;;;;;4937426;29;20460;-71
2023/11/17 17:54:06;;;;;;;14.73;7.20;;;;;;;;;;4937508;29;20413;-71
2023/11/17 17:56:33;;;;;;;11.87;6.73;;;;;;;;;;4937727;29;20505;-71
2023/11/17 17:58:58;;;;;;;15.80;5.57;;;;;;;;;;4937555;29;20949;-73
2023/11/17 18:01:24;;;;;;;12.43;5.47;;;;;;;;;;4937441;29;20448;-72
2023/11/17 18:03:50;;;;;;;10.90;6.40;;;;;;;;;;4937362;29;20860;-73
2023/11/17 18:06:17;;;;;;;11.77;6.40;;;;;;;;;;4936369;29;20452;-72
2023/11/17 18:08:44;;;;;;;16.97;5.97;;;;;;;;;;4941880;28;20471;-72
2023/11/17 18:11:11;;;;;;;11.90;6.20;;;;;;;;;;4939461;29;20437;-73
2023/11/17 18:13:38;;;;;;;9.10;5.50;;;;;;;;;;4936346;29;20418;-73
2023/11/17 18:16:04;;;;;;;9.10;4.13;;;;;;;;;;4936964;29;20440;-72
2023/11/17 18:18:34;;;;;;;7.60;4.67;;;;;;;;;;4935936;29;20418;-73
2023/11/17 18:21:02;;;;;;;5.83;4.30;;;;;;;;;;4936328;29;20457;-79
2023/11/17 18:23:28;;;;;;;7.60;3.57;;;;;;;;;;4936913;29;20496;-77
2023/11/17 18:25:56;;;;;;;5.80;3.10;;;;;;;;;;4936827;29;20430;-73
2023/11/17 18:28:23;;;;;;;5.03;3.60;;;;;;;;;;4937033;29;20829;-72
2023/11/17 18:30:50;;;;;;;6.53;3.70;;;;;;;;;;4935651;29;20996;-74
2023/11/17 18:33:16;;;;;;;6.40;3.53;;;;;;;;;;4938625;28;20789;-74
2023/11/17 18:35:43;;;;;;;6.50;4.00;;;;;;;;;;4947310;29;20423;-74
2023/11/17 18:38:09;;;;;;;8.47;5.50;;;;;;;;;;4937290;29;21577;-73
2023/11/17 18:40:36;;;;;;;12.43;7.20;;;;;;;;;;4936733;29;20505;-72
2023/11/17 18:43:02;;;;;;;7.57;5.40;;;;;;;;;;4936749;29;20434;-73
2023/11/17 18:45:29;;;;;;;7.80;5.40;;;;;;;;;;4935098;29;20521;-73
2023/11/17 18:47:57;;;;;;;8.60;4.77;;;;;;;;;;4936159;29;20465;-70
2023/11/17 18:50:23;;;;;;;9.70;6.00;;;;;;;;;;4936017;29;20457;-72
2023/11/17 18:52:49;;;;;;;13.60;6.63;;;;;;;;;;4938605;29;20425;-72
2023/11/17 18:55:16;;;;;;;12.47;6.70;;;;;;;;;;4936905;29;20496;-72
2023/11/17 18:57:42;;;;;;;16.60;7.20;;;;;;;;;;4934914;29;20461;-72
2023/11/17 19:00:19;;;;;;;13.70;6.00;;;;;;;;;;4936517;29;20441;-72
2023/11/17 19:02:46;;;;;;;8.87;5.23;;;;;;;;;;4936850;29;20417;-72
2023/11/17 19:05:14;;;;;;;12.50;6.43;;;;;;;;;;4923078;29;20429;-71
2023/11/17 19:07:43;;;;;;;14.83;8.10;;;;;;;;;;4922172;29;20856;-72
2023/11/17 19:10:09;;;;;;;11.40;6.53;;;;;;;;;;4917550;29;20437;-72
2023/11/17 19:12:35;;;;;;;9.83;6.40;;;;;;;;;;4917575;29;20462;-72
2023/11/17 19:15:06;;;;;;;13.00;7.57;;;;;;;;;;4934810;29;20424;-72
2023/11/17 19:17:32;;;;;;;15.50;7.43;;;;;;;;;;4936487;29;20505;-72
2023/11/17 19:19:58;;;;;;;13.47;6.93;;;;;;;;;;4935092;29;20444;-73
2023/11/17 19:22:24;;;;;;;12.90;5.90;;;;;;;;;;4936246;29;20528;-74
2023/11/17 19:24:50;;;;;;;10.57;5.50;;;;;;;;;;4936396;29;20421;-75
2023/11/17 19:27:18;;;;;;;9.20;5.50;;;;;;;;;;4936103;29;20436;-71
2023/11/17 19:29:47;;;;;;;13.73;6.23;;;;;;;;;;4936350;29;20421;-74
2023/11/17 19:32:15;;;;;;;10.30;5.50;;;;;;;;;;4936179;29;20414;-73
2023/11/17 19:34:41;;;;;;;12.73;6.27;;;;;;;;;;4925632;29;20526;-72
2023/11/17 19:37:10;;;;;;;12.00;5.70;;;;;;;;;;4916871;29;20411;-72
2023/11/17 19:39:36;;;;;;;10.53;5.87;;;;;;;;;;4916064;29;20426;-69
2023/11/17 19:42:05;;;;;;;15.53;6.97;;;;;;;;;;4924129;29;20451;-69
2023/11/17 19:44:34;;;;;;;7.57;4.53;;;;;;;;;;4936032;29;20410;-69
2023/11/17 19:47:03;;;;;;;10.50;5.10;;;;;;;;;;4934273;29;20483;-69
2023/11/17 19:49:29;;;;;;;10.13;6.10;;;;;;;;;;4935888;29;20441;-70
2023/11/17 19:51:56;;;;;;;9.77;6.00;;;;;;;;;;4934032;29;20548;-71
2023/11/17 19:54:22;;;;;;;8.10;4.50;;;;;;;;;;4934530;29;20418;-71
2023/11/17 19:56:52;;;;;;;9.90;6.13;;;;;;;;;;4935289;29;20498;-70
2023/11/17 19:59:18;;;;;;;17.50;7.80;;;;;;;;;;4935839;29;20449;-71
2023/11/17 20:01:44;;;;;;;16.97;6.90;;;;;;;;;;4935733;29;20441;-71
2023/11/17 20:04:13;;;;;;;11.33;5.73;;;;;;;;;;4935477;29;20771;-71
2023/11/17 20:06:42;;;;;;;22.80;9.73;;;;;;;;;;4934092;29;20854;-70
2023/11/17 20:09:17;;;;;;;31.27;13.50;;;;;;;;;;4935411;29;21012;-71
2023/11/17 20:11:43;;;;;;;17.00;8.00;;;;;;;;;;4935358;29;20430;-71
2023/11/17 20:14:10;;;;;;;9.23;5.30;;;;;;;;;;4918454;29;20419;-71
2023/11/17 20:16:36;;;;;;;9.77;4.20;;;;;;;;;;4916244;29;20416;-71
2023/11/17 20:19:02;;;;;;;5.20;3.60;;;;;;;;;;4915083;29;20425;-70
2023/11/17 20:21:29;;;;;;;9.13;4.37;;;;;;;;;;4916242;29;20438;-70
2023/11/17 20:23:55;;;;;;;6.60;3.90;;;;;;;;;;4916151;29;20426;-71
2023/11/17 20:26:21;;;;;;;6.43;3.63;;;;;;;;;;4924931;29;20477;-70
2023/11/17 20:28:47;;;;;;;7.63;3.60;;;;;;;;;;4935366;29;20462;-71
2023/11/17 20:31:15;;;;;;;5.40;3.83;;;;;;;;;;4933976;29;21024;-72
2023/11/17 20:33:42;;;;;;;6.60;3.40;;;;;;;;;;4935095;29;20413;-72
2023/11/17 20:36:17;;;;;;;5.77;4.60;;;;;;;;;;4933488;29;20981;-71
2023/11/17 20:38:43;;;;;;;8.23;4.20;;;;;;;;;;4935107;29;20789;-71
2023/11/17 20:41:09;;;;;;;6.10;3.50;;;;;;;;;;4934993;29;20437;-71
2023/11/17 20:43:35;;;;;;;20.87;9.27;;;;;;;;;;4934715;29;20417;-71
2023/11/17 20:46:01;;;;;;;5.27;3.77;;;;;;;;;;4933042;29;20492;-71
2023/11/17 20:48:27;;;;;;;6.53;3.60;;;;;;;;;;4915830;29;20462;-72
2023/11/17 20:50:55;;;;;;;6.93;3.27;;;;;;;;;;4961552;23;20500;-78
2023/11/17 20:53:22;;;;;;;4.23;3.20;;;;;;;;;;4976726;28;20417;-82
2023/11/17 20:55:48;;;;;;;5.70;3.90;;;;;;;;;;4970863;29;20523;-80
2023/11/17 20:58:15;;;;;;;9.23;3.90;;;;;;;;;;4968293;28;20408;-81
2023/11/17 21:00:41;;;;;;;20.37;3.87;;;;;;;;;;4967882;28;20425;-79
2023/11/17 21:03:08;;;;;;;7.70;4.30;;;;;;;;;;4959253;29;20944;-74
2023/11/17 21:05:35;;;;;;;6.93;4.37;;;;;;;;;;4934265;29;20442;-74
2023/11/17 21:08:03;;;;;;;8.00;4.30;;;;;;;;;;4936198;29;20473;-74
2023/11/17 21:10:30;;;;;;;6.17;3.70;;;;;;;;;;4936921;29;20488;-74
2023/11/17 21:12:56;;;;;;;8.10;4.13;;;;;;;;;;4937540;29;20417;-75
2023/11/17 21:15:22;;;;;;;5.03;3.50;;;;;;;;;;4936346;29;20410;-74
2023/11/17 21:17:51;;;;;;;5.90;3.77;;;;;;;;;;4935409;29;20418;-74
2023/11/17 21:20:17;;;;;;;8.03;5.10;;;;;;;;;;4938613;29;20834;-74
2023/11/17 21:22:43;;;;;;;11.70;5.93;;;;;;;;;;4938543;29;20414;-74
2023/11/17 21:25:13;;;;;;;12.87;6.80;;;;;;;;;;4937168;29;20452;-74
2023/11/17 21:27:42;;;;;;;7.97;5.47;;;;;;;;;;4946759;29;20468;-74
2023/11/17 21:30:15;;;;;;;7.40;4.23;;;;;;;;;;4957976;29;20424;-74
2023/11/17 21:32:45;;;;;;;6.10;3.87;;;;;;;;;;4937149;29;20752;-74
2023/11/17 21:35:17;;;;;;;5.80;3.97;;;;;;;;;;4944595;29;20436;-74
2023/11/17 21:37:44;;;;;;;7.30;4.23;;;;;;;;;;4957721;29;20416;-74
2023/11/17 21:40:13;;;;;;;9.43;4.63;;;;;;;;;;4956363;29;20417;-74
2023/11/17 21:42:43;;;;;;;7.90;3.90;;;;;;;;;;4942141;29;20438;-74
2023/11/17 21:45:14;;;;;;;5.97;3.80;;;;;;;;;;4938494;29;20430;-74
2023/11/17 21:47:41;;;;;;;5.10;3.60;;;;;;;;;;4940651;29;20460;-74
2023/11/17 21:50:09;;;;;;;4.90;4.00;;;;;;;;;;4940716;29;20410;-74
2023/11/17 21:52:36;;;;;;;8.10;4.50;;;;;;;;;;4941019;29;20509;-73
2023/11/17 21:55:02;;;;;;;9.30;4.50;;;;;;;;;;4940851;29;20406;-74
2023/11/17 21:57:28;;;;;;;9.43;4.30;;;;;;;;;;4940601;29;20777;-73
2023/11/17 21:59:54;;;;;;;7.20;4.77;;;;;;;;;;4935444;29;20513;-75
2023/11/17 22:02:20;;;;;;;6.53;4.20;;;;;;;;;;4942887;29;20791;-75
2023/11/17 22:04:46;;;;;;;7.40;3.93;;;;;;;;;;4957314;29;20439;-74
2023/11/17 22:07:12;;;;;;;8.10;4.10;;;;;;;;;;4956704;29;20413;-74
2023/11/17 22:09:38;;;;;;;9.17;5.17;;;;;;;;;;4956961;29;20788;-74
2023/11/17 22:12:04;;;;;;;7.20;4.33;;;;;;;;;;4955518;29;20443;-74
2023/11/17 22:14:30;;;;;;;6.00;4.73;;;;;;;;;;4956865;29;20499;-74
2023/11/17 22:16:56;;;;;;;8.27;4.67;;;;;;;;;;4957091;29;20495;-74
2023/11/17 22:19:22;;;;;;;9.90;5.30;;;;;;;;;;4957301;29;20752;-74
2023/11/17 22:21:49;;;;;;;5.63;3.93;;;;;;;;;;4954541;29;20437;-74
2023/11/17 22:24:17;;;;;;;8.57;5.10;;;;;;;;;;4937163;29;20429;-74
2023/11/17 22:26:43;;;;;;;12.13;6.40;;;;;;;;;;4936537;29;20438;-74
2023/11/17 22:29:10;;;;;;;9.80;5.27;;;;;;;;;;4937075;29;20467;-74
2023/11/17 22:31:37;;;;;;;8.67;4.90;;;;;;;;;;4935435;29;20485;-73
2023/11/17 22:34:03;;;;;;;9.97;5.73;;;;;;;;;;4937322;29;20421;-74
2023/11/17 22:36:29;;;;;;;17.70;4.90;;;;;;;;;;4936992;29;20417;-74
2023/11/17 22:38:55;;;;;;;6.70;4.57;;;;;;;;;;4937174;29;20421;-74
2023/11/17 22:41:24;;;;;;;12.27;6.37;;;;;;;;;;4936303;29;20540;-73
2023/11/17 22:43:51;;;;;;;8.63;5.43;;;;;;;;;;4937558;29;20550;-74
2023/11/17 22:46:17;;;;;;;14.17;6.90;;;;;;;;;;4937041;29;20425;-74
2023/11/17 22:48:47;;;;;;;14.27;7.40;;;;;;;;;;4950576;29;20468;-74
2023/11/17 22:51:17;;;;;;;12.97;6.83;;;;;;;;;;4940868;29;20537;-74
2023/11/17 22:53:43;;;;;;;16.00;6.30;;;;;;;;;;4937577;29;20929;-74
2023/11/17 22:56:16;;;;;;;22.47;7.77;;;;;;;;;;4936476;29;21032;-74
2023/11/17 22:58:42;;;;;;;12.70;6.70;;;;;;;;;;4939823;29;20526;-74
2023/11/17 23:01:08;;;;;;;13.90;6.03;;;;;;;;;;4941641;29;21348;-73
2023/11/17 23:03:35;;;;;;;8.90;5.00;;;;;;;;;;4938328;29;20405;-74
2023/11/17 23:06:01;;;;;;;9.37;5.17;;;;;;;;;;4936522;29;20413;-74
2023/11/17 23:08:27;;;;;;;12.77;6.33;;;;;;;;;;4936739;29;20480;-73
2023/11/17 23:10:53;;;;;;;13.03;6.53;;;;;;;;;;4935708;29;20953;-74
2023/11/17 23:13:19;;;;;;;10.10;6.10;;;;;;;;;;4936761;29;20424;-73
2023/11/17 23:15:45;;;;;;;12.33;7.20;;;;;;;;;;4936280;29;20421;-74
2023/11/17 23:18:12;;;;;;;10.20;6.10;;;;;;;;;;4936778;29;20909;-74
2023/11/17 23:20:38;;;;;;;9.97;6.30;;;;;;;;;;4936127;29;20525;-74
2023/11/17 23:23:04;;;;;;;9.00;5.60;;;;;;;;;;4936186;29;20424;-74
2023/11/17 23:25:32;;;;;;;11.53;5.90;;;;;;;;;;4935984;29;20880;-74
2023/11/17 23:28:00;;;;;;;8.63;4.73;;;;;;;;;;4936081;29;20461;-74
2023/11/17 23:30:27;;;;;;;12.17;5.10;;;;;;;;;;4935957;29;20425;-74
2023/11/17 23:32:53;;;;;;;11.73;5.30;;;;;;;;;;4936159;29;20444;-74
2023/11/17 23:35:19;;;;;;;8.20;5.13;;;;;;;;;;4935541;29;20414;-74
2023/11/17 23:37:46;;;;;;;8.87;4.80;;;;;;;;;;4935781;29;20428;-74
2023/11/17 23:40:16;;;;;;;11.43;5.27;;;;;;;;;;4935735;29;20414;-74
2023/11/17 23:42:43;;;;;;;7.60;4.67;;;;;;;;;;4942188;29;20428;-74
2023/11/17 23:45:09;;;;;;;10.23;5.80;;;;;;;;;;4953510;29;20524;-73
2023/11/17 23:47:36;;;;;;;11.03;5.73;;;;;;;;;;4954205;29;20469;-74
2023/11/17 23:50:02;;;;;;;9.10;5.50;;;;;;;;;;4955276;29;20416;-73
2023/11/17 23:52:28;;;;;;;8.73;5.43;;;;;;;;;;4955091;29;20452;-73
2023/11/17 23:54:54;;;;;;;9.53;5.93;;;;;;;;;;4954966;29;20464;-74
2023/11/17 23:57:20;;;;;;;14.50;5.30;;;;;;;;;;4955049;29;20495;-74
2023/11/17 23:59:46;;;;;;;9.93;6.20;;;;;;;;;;4954930;29;20465;-74
